createdAt,value
2019-01-03T00:01:46.222Z,6.80
2019-01-03T00:04:35.490Z,7.07
2019-01-03T00:07:34.199Z,6.75
2019-01-03T00:10:37.651Z,6.90
2019-01-03T00:13:39.108Z,6.43
2019-01-03T00:16:43.507Z,5.00
2019-01-03T00:19:33.297Z,5.00
2019-01-03T00:22:34.838Z,5.77
2019-01-03T00:25:26.172Z,5.77
2019-01-03T00:28:22.958Z,5.33
2019-01-03T00:31:11.313Z,5.70
2019-01-03T00:34:00.528Z,5.57
2019-01-03T00:37:04.251Z,5.83
2019-01-03T00:39:48.884Z,6.03
2019-01-03T00:42:40.552Z,5.97
2019-01-03T00:45:32.210Z,4.90
2019-01-03T00:48:31.730Z,5.40
2019-01-03T00:51:27.016Z,4.90
2019-01-03T00:54:30.664Z,6.07
2019-01-03T00:57:21.204Z,6.03
2019-01-03T01:00:17.726Z,6.27
2019-01-03T01:03:14.381Z,6.70
2019-01-03T01:06:03.273Z,5.70
2019-01-03T01:08:53.797Z,5.53
2019-01-03T01:11:43.104Z,6.00
2019-01-03T01:14:35.028Z,6.50
2019-01-03T01:17:24.346Z,6.85
2019-01-03T01:20:24.389Z,6.65
2019-01-03T01:23:18.230Z,5.37
2019-01-03T01:26:23.959Z,6.60
2019-01-03T01:29:23.538Z,6.37
2019-01-03T01:32:13.526Z,5.23
2019-01-03T01:35:07.921Z,5.37
2019-01-03T01:38:10.421Z,5.57
2019-01-03T01:40:59.662Z,5.23
2019-01-03T01:43:54.588Z,5.73
2019-01-03T01:46:48.369Z,5.10
2019-01-03T01:49:38.962Z,5.20
2019-01-03T01:52:28.104Z,5.00
2019-01-03T01:55:17.544Z,4.75
2019-01-03T01:58:26.375Z,4.78
2019-01-03T02:01:15.850Z,4.80
2019-01-03T02:04:08.037Z,5.87
2019-01-03T02:07:07.765Z,6.60
2019-01-03T02:10:01.448Z,5.47
2019-01-03T02:12:52.141Z,5.20
2019-01-03T02:16:02.125Z,5.50
2019-01-03T02:18:55.921Z,5.93
2019-01-03T02:21:47.405Z,4.97
2019-01-03T02:24:34.461Z,5.13
2019-01-03T02:27:30.927Z,4.57
2019-01-03T02:30:30.842Z,5.33
2019-01-03T02:33:39.554Z,4.77
2019-01-03T02:36:36.575Z,5.03
2019-01-03T02:39:27.626Z,5.47
2019-01-03T02:42:17.879Z,5.17
2019-01-03T02:45:14.640Z,5.80
2019-01-03T02:48:04.430Z,5.90
2019-01-03T02:51:10.444Z,5.57
2019-01-03T02:54:12.580Z,6.10
2019-01-03T02:57:03.470Z,5.20
2019-01-03T03:00:23.570Z,5.70
2019-01-03T03:03:36.523Z,4.95
2019-01-03T03:06:42.492Z,5.30
2019-01-03T03:09:45.721Z,4.30
2019-01-03T03:12:51.486Z,6.57
2019-01-03T03:15:47.161Z,4.63
2019-01-03T03:18:46.964Z,5.40
2019-01-03T03:21:43.352Z,5.17
2019-01-03T03:24:37.826Z,5.47
2019-01-03T03:27:30.999Z,5.30
2019-01-03T03:30:21.544Z,4.90
2019-01-03T03:33:15.106Z,5.10
2019-01-03T03:36:08.058Z,4.57
2019-01-03T03:39:11.330Z,5.37
2019-01-03T03:42:02.497Z,6.40
2019-01-03T03:44:56.091Z,5.10
2019-01-03T03:47:45.855Z,6.40
2019-01-03T03:50:42.123Z,5.20
2019-01-03T03:53:36.107Z,6.07
2019-01-03T03:56:25.609Z,5.40
2019-01-03T03:59:19.495Z,5.75
2019-01-03T04:02:25.431Z,6.07
2019-01-03T04:05:21.333Z,6.65
2019-01-03T04:08:14.603Z,4.77
2019-01-03T04:11:17.291Z,5.00
2019-01-03T04:13:58.523Z,6.17
2019-01-03T04:16:39.696Z,4.30
2019-01-03T04:19:29.452Z,4.55
2019-01-03T04:22:26.002Z,5.30
2019-01-03T04:25:17.350Z,5.03
2019-01-03T04:28:04.154Z,4.60
2019-01-03T04:30:57.692Z,4.60
2019-01-03T04:33:59.672Z,5.50
2019-01-03T04:36:49.070Z,5.20
2019-01-03T04:39:46.293Z,6.13
2019-01-03T04:42:40.565Z,4.87
2019-01-03T04:45:29.425Z,4.97
2019-01-03T04:48:23.101Z,5.13
2019-01-03T04:51:25.857Z,6.00
2019-01-03T04:54:18.463Z,5.95
2019-01-03T04:57:07.548Z,4.70
2019-01-03T05:00:01.162Z,4.97
2019-01-03T05:02:46.640Z,5.60
2019-01-03T05:05:37.132Z,5.87
2019-01-03T05:08:21.432Z,6.70
2019-01-03T05:11:12.064Z,5.07
2019-01-03T05:14:00.131Z,5.10
2019-01-03T05:16:53.599Z,6.07
2019-01-03T05:19:50.117Z,5.80
2019-01-03T05:22:40.626Z,5.23
2019-01-03T05:25:35.492Z,4.80
2019-01-03T05:28:25.112Z,4.90
2019-01-03T05:31:14.633Z,4.53
2019-01-03T05:34:03.432Z,4.60
2019-01-03T05:36:53.926Z,5.22
2019-01-03T05:39:44.692Z,6.17
2019-01-03T05:42:33.998Z,10.95
2019-01-03T05:45:31.253Z,9.20
2019-01-03T05:48:20.560Z,6.80
2019-01-03T05:51:11.514Z,8.13
2019-01-03T05:54:05.997Z,6.77
2019-01-03T05:57:02.480Z,5.10
2019-01-03T05:59:51.153Z,5.27
2019-01-03T06:02:40.432Z,6.00
2019-01-03T06:05:42.921Z,7.20
2019-01-03T06:08:36.835Z,5.67
2019-01-03T06:11:33.352Z,4.30
2019-01-03T06:14:32.783Z,4.77
2019-01-03T06:17:20.992Z,4.30
2019-01-03T06:20:25.878Z,5.20
2019-01-03T06:23:26.760Z,7.03
2019-01-03T06:26:16.072Z,9.20
2019-01-03T06:29:07.423Z,7.50
2019-01-03T06:31:58.057Z,6.30
2019-01-03T06:34:47.165Z,5.83
2019-01-03T06:37:47.008Z,5.90
2019-01-03T06:40:43.343Z,4.85
2019-01-03T06:43:40.210Z,4.53
2019-01-03T06:46:30.718Z,4.83
2019-01-03T06:51:57.051Z,6.17
2019-01-03T06:55:06.218Z,4.30
2019-01-03T06:58:05.565Z,5.47
2019-01-03T07:00:51.810Z,5.60
2019-01-03T07:03:39.148Z,4.67
2019-01-03T07:06:29.705Z,3.97
2019-01-03T07:09:38.824Z,3.63
2019-01-03T07:12:29.294Z,4.57
2019-01-03T07:15:18.954Z,4.00
2019-01-03T07:18:08.763Z,4.90
2019-01-03T07:21:02.359Z,4.80
2019-01-03T07:23:59.177Z,4.90
2019-01-03T07:26:47.852Z,5.30
2019-01-03T07:29:37.667Z,5.50
2019-01-03T07:32:27.292Z,5.20
2019-01-03T07:35:21.054Z,4.30
2019-01-03T07:38:23.761Z,4.63
2019-01-03T07:41:28.175Z,4.50
2019-01-03T07:44:27.933Z,5.20
2019-01-03T07:47:24.776Z,5.20
2019-01-03T07:50:15.400Z,7.83
2019-01-03T07:53:08.806Z,7.57
2019-01-03T07:55:59.482Z,6.90
2019-01-03T07:58:50.719Z,7.37
2019-01-03T08:01:44.404Z,6.12
2019-01-03T08:04:50.666Z,6.40
2019-01-03T08:07:40.378Z,6.70
2019-01-03T08:10:33.868Z,7.08
2019-01-03T08:13:21.837Z,5.70
2019-01-03T08:16:12.457Z,8.50
2019-01-03T08:19:11.325Z,5.92
2019-01-03T08:22:00.801Z,5.90
2019-01-03T08:24:52.911Z,5.63
2019-01-03T08:27:43.538Z,6.70
2019-01-03T08:30:39.917Z,6.05
2019-01-03T08:33:35.024Z,5.30
2019-01-03T08:36:25.219Z,5.86
2019-01-03T08:39:30.424Z,5.00
2019-01-03T08:42:38.955Z,4.27
2019-01-03T08:45:47.136Z,4.20
2019-01-03T08:48:36.367Z,3.30
2019-01-03T08:51:42.541Z,4.17
2019-01-03T08:54:45.021Z,3.70
2019-01-03T08:57:42.310Z,4.10
2019-01-03T09:00:35.620Z,3.93
2019-01-03T09:03:35.109Z,4.27
2019-01-03T09:06:24.071Z,5.62
2019-01-03T09:09:30.091Z,4.50
2019-01-03T09:12:25.416Z,4.47
2019-01-03T09:15:20.495Z,4.65
2019-01-03T09:18:18.482Z,4.67
2019-01-03T09:21:15.032Z,4.20
2019-01-03T09:24:09.563Z,4.80
2019-01-03T09:27:12.491Z,4.37
2019-01-03T09:30:05.229Z,4.37
2019-01-03T09:32:54.176Z,3.80
2019-01-03T09:35:44.032Z,4.97
2019-01-03T09:38:46.177Z,4.83
2019-01-03T09:41:38.653Z,3.90
2019-01-03T09:44:44.372Z,4.07
2019-01-03T09:47:16.142Z,4.63
2019-01-03T09:49:47.894Z,5.07
2019-01-03T09:52:20.646Z,4.20
2019-01-03T09:54:52.390Z,4.63
2019-01-03T09:57:24.095Z,5.57
2019-01-03T09:59:57.273Z,5.30
2019-01-03T10:02:26.480Z,6.50
2019-01-03T10:04:58.832Z,5.60
2019-01-03T10:07:30.530Z,5.63
2019-01-03T10:10:02.409Z,5.30
2019-01-03T10:12:34.109Z,5.70
2019-01-03T10:15:06.727Z,5.30
2019-01-03T10:17:38.553Z,5.47
2019-01-03T10:20:12.475Z,5.06
2019-01-03T10:22:44.153Z,5.70
2019-01-03T10:25:15.816Z,5.50
2019-01-03T10:27:47.775Z,5.40
2019-01-03T10:30:19.919Z,5.50
2019-01-03T10:32:53.530Z,5.93
2019-01-03T10:35:26.980Z,5.60
2019-01-03T10:37:59.705Z,5.90
2019-01-03T10:40:31.354Z,6.13
2019-01-03T10:43:03.360Z,6.67
2019-01-03T10:45:35.163Z,5.80
2019-01-03T10:48:07.020Z,5.30
2019-01-03T10:50:38.806Z,5.30
2019-01-03T10:53:10.638Z,5.62
2019-01-03T10:55:42.323Z,5.07
2019-01-03T10:58:14.130Z,4.97
2019-01-03T11:00:47.566Z,5.40
2019-01-03T11:03:19.430Z,7.27
2019-01-03T11:05:51.196Z,6.67
2019-01-03T11:08:22.874Z,7.60
2019-01-03T11:10:54.601Z,5.70
2019-01-03T11:13:26.595Z,6.40
2019-01-03T11:16:05.027Z,7.03
2019-01-03T11:18:36.791Z,5.97
2019-01-03T11:21:08.368Z,4.80
2019-01-03T11:23:40.028Z,5.77
2019-01-03T11:26:12.757Z,5.47
2019-01-03T11:28:44.404Z,5.40
2019-01-03T11:31:16.151Z,5.75
2019-01-03T11:33:48.127Z,5.47
2019-01-03T11:36:19.742Z,6.20
2019-01-03T11:38:51.546Z,6.07
2019-01-03T11:41:23.221Z,6.13
2019-01-03T11:43:54.881Z,6.57
2019-01-03T11:46:26.581Z,6.70
2019-01-03T11:48:58.276Z,8.50
2019-01-03T11:51:30.149Z,6.53
2019-01-03T11:54:01.798Z,5.40
2019-01-03T11:56:33.536Z,6.07
2019-01-03T11:59:05.246Z,5.60
2019-01-03T12:01:36.922Z,6.00
2019-01-03T12:04:10.124Z,5.97
2019-01-03T12:06:42.423Z,6.20
2019-01-03T12:09:15.431Z,6.17
2019-01-03T12:11:47.143Z,6.50
2019-01-03T12:14:23.061Z,5.70
2019-01-03T12:16:55.130Z,5.47
2019-01-03T12:19:27.270Z,4.80
2019-01-03T12:21:59.616Z,5.07
2019-01-03T12:24:31.261Z,6.30
2019-01-03T12:27:02.858Z,5.45
2019-01-03T12:29:35.001Z,4.90
2019-01-03T12:32:06.736Z,6.67
2019-01-03T12:34:38.391Z,6.30
2019-01-03T12:37:10.824Z,6.40
2019-01-03T12:39:42.547Z,5.70
2019-01-03T12:42:14.285Z,6.07
2019-01-03T12:44:46.345Z,5.50
2019-01-03T12:47:18.349Z,5.60
2019-01-03T12:49:50.023Z,6.23
2019-01-03T12:52:22.798Z,6.93
2019-01-03T12:54:54.481Z,5.90
2019-01-03T12:57:26.161Z,5.87
2019-01-03T12:59:59.604Z,5.70
2019-01-03T13:02:31.529Z,6.30
2019-01-03T13:05:03.997Z,6.00
2019-01-03T13:07:35.937Z,6.00
2019-01-03T13:10:09.615Z,6.57
2019-01-03T13:12:41.269Z,6.37
2019-01-03T13:15:11.727Z,7.70
2019-01-03T13:17:40.972Z,6.80
2019-01-03T13:20:12.664Z,6.50
2019-01-03T13:22:44.521Z,6.73
2019-01-03T13:25:19.630Z,7.37
2019-01-03T13:27:51.506Z,6.87
2019-01-03T13:30:23.230Z,8.80
2019-01-03T13:32:55.145Z,7.17
2019-01-03T13:35:26.835Z,7.35
2019-01-03T13:37:58.552Z,7.27
2019-01-03T13:40:31.196Z,6.50
2019-01-03T13:43:02.900Z,7.87
2019-01-03T13:45:34.968Z,7.30
2019-01-03T13:48:06.707Z,7.50
2019-01-03T13:50:38.459Z,7.75
2019-01-03T13:53:10.472Z,7.70
2019-01-03T13:55:42.897Z,6.50
2019-01-03T13:58:14.791Z,7.50
2019-01-03T14:00:46.710Z,6.47
2019-01-03T14:03:18.954Z,8.45
2019-01-03T14:05:52.782Z,8.10
2019-01-03T14:08:24.633Z,8.33
2019-01-03T14:10:57.123Z,8.10
2019-01-03T14:13:29.108Z,7.17
2019-01-03T14:16:00.807Z,7.70
2019-01-03T14:18:32.853Z,8.13
2019-01-03T14:21:04.748Z,6.42
2019-01-03T14:23:36.564Z,6.28
2019-01-03T14:26:08.990Z,7.30
2019-01-03T14:28:40.769Z,7.50
2019-01-03T14:31:12.938Z,6.87
2019-01-03T14:33:46.149Z,7.50
2019-01-03T14:36:19.917Z,7.30
2019-01-03T14:38:53.079Z,7.30
2019-01-03T14:41:25.822Z,7.95
2019-01-03T14:43:57.587Z,6.50
2019-01-03T14:46:29.556Z,6.08
2019-01-03T14:49:01.523Z,6.83
2019-01-03T14:51:33.211Z,6.33
2019-01-03T14:54:04.939Z,6.30
2019-01-03T14:56:38.725Z,7.10
2019-01-03T14:59:10.476Z,8.10
2019-01-03T15:01:42.383Z,6.90
2019-01-03T15:04:14.440Z,6.92
2019-01-03T15:06:46.601Z,7.12
2019-01-03T15:09:21.148Z,7.08
2019-01-03T15:11:53.647Z,6.77
2019-01-03T15:14:25.508Z,6.50
2019-01-03T15:16:57.254Z,8.70
2019-01-03T15:19:29.184Z,6.40
2019-01-03T15:22:00.867Z,7.10
2019-01-03T15:24:32.623Z,7.43
2019-01-03T15:27:04.970Z,7.33
2019-01-03T15:29:36.867Z,8.40
2019-01-03T15:32:11.015Z,7.50
2019-01-03T15:34:45.519Z,7.17
2019-01-03T15:37:17.179Z,8.90
2019-01-03T15:39:48.968Z,7.70
2019-01-03T15:42:20.662Z,7.33
2019-01-03T15:44:52.980Z,7.60
2019-01-03T15:47:28.187Z,6.87
2019-01-03T15:50:00.410Z,7.72
2019-01-03T15:52:32.119Z,7.97
2019-01-03T15:55:04.280Z,7.67
2019-01-03T15:57:36.242Z,6.73
2019-01-03T16:00:12.264Z,7.67
2019-01-03T16:03:04.999Z,7.30
2019-01-03T16:06:04.349Z,6.87
2019-01-03T16:08:41.329Z,6.93
2019-01-03T16:11:22.752Z,7.27
2019-01-03T16:14:05.791Z,7.17
2019-01-03T16:16:39.834Z,8.93
2019-01-03T16:19:20.924Z,7.77
2019-01-03T16:21:56.586Z,8.97
2019-01-03T16:24:37.264Z,8.53
2019-01-03T16:27:12.001Z,9.17
2019-01-03T16:29:43.942Z,8.53
2019-01-03T16:32:22.961Z,9.55
2019-01-03T16:34:55.024Z,8.47
2019-01-03T16:37:37.227Z,10.13
2019-01-03T16:40:12.708Z,10.23
2019-01-03T16:42:49.103Z,9.07
2019-01-03T16:45:20.818Z,8.60
2019-01-03T16:47:52.740Z,8.53
2019-01-03T16:50:25.281Z,9.80
2019-01-03T16:52:57.027Z,9.70
2019-01-03T16:55:28.720Z,9.40
2019-01-03T16:58:00.861Z,8.57
2019-01-03T17:00:32.617Z,7.33
2019-01-03T17:03:04.330Z,7.77
2019-01-03T17:05:36.095Z,8.10
2019-01-03T17:08:07.868Z,7.13
2019-01-03T17:10:39.590Z,7.30
2019-01-03T17:13:11.801Z,7.50
2019-01-03T17:15:44.659Z,9.20
2019-01-03T17:18:16.681Z,8.70
2019-01-03T17:20:48.620Z,8.87
2019-01-03T17:23:20.384Z,13.40
2019-01-03T17:25:52.209Z,11.23
2019-01-03T17:28:24.800Z,9.20
2019-01-03T17:30:56.496Z,6.60
2019-01-03T17:33:29.582Z,10.53
2019-01-03T17:36:01.290Z,7.40
2019-01-03T17:38:33.072Z,10.43
2019-01-03T17:41:05.169Z,10.60
2019-01-03T17:43:42.022Z,9.30
2019-01-03T17:46:13.689Z,7.90
2019-01-03T17:48:45.556Z,8.10
2019-01-03T17:51:18.306Z,7.53
2019-01-03T17:53:50.077Z,7.53
2019-01-03T17:56:21.907Z,6.50
2019-01-03T17:58:54.026Z,7.22
2019-01-03T18:01:25.900Z,8.55
2019-01-03T18:03:57.860Z,7.47
2019-01-03T18:06:30.793Z,8.57
2019-01-03T18:09:02.680Z,7.93
2019-01-03T18:11:34.685Z,7.17
2019-01-03T18:14:07.561Z,6.90
2019-01-03T18:16:39.600Z,7.15
2019-01-03T18:19:11.382Z,6.60
2019-01-03T18:21:43.273Z,6.00
2019-01-03T18:24:15.064Z,8.10
2019-01-03T18:26:47.070Z,6.60
2019-01-03T18:29:19.840Z,8.23
2019-01-03T18:31:52.701Z,7.70
2019-01-03T18:34:25.151Z,8.70
2019-01-03T18:36:57.169Z,7.80
2019-01-03T18:39:29.515Z,7.92
2019-01-03T18:42:01.313Z,7.90
2019-01-03T18:44:33.221Z,7.73
2019-01-03T18:47:05.820Z,8.83
2019-01-03T18:49:37.754Z,8.60
2019-01-03T18:52:09.550Z,8.08
2019-01-03T18:54:41.396Z,8.07
2019-01-03T18:57:13.538Z,8.55
2019-01-03T18:59:45.747Z,7.57
2019-01-03T19:02:17.797Z,7.40
2019-01-03T19:04:49.706Z,8.87
2019-01-03T19:07:21.973Z,8.00
2019-01-03T19:09:53.788Z,8.27
2019-01-03T19:12:25.557Z,9.50
2019-01-03T19:14:57.816Z,8.90
2019-01-03T19:17:30.994Z,9.50
2019-01-03T19:20:02.698Z,7.50
2019-01-03T19:22:34.427Z,8.80
2019-01-03T19:25:08.347Z,8.63
2019-01-03T19:27:40.203Z,7.63
2019-01-03T19:30:13.243Z,8.57
2019-01-03T19:32:45.896Z,8.30
2019-01-03T19:35:17.654Z,7.70
2019-01-03T19:37:49.621Z,7.83
2019-01-03T19:40:21.778Z,7.87
2019-01-03T19:42:53.697Z,7.83
2019-01-03T19:45:25.589Z,8.05
2019-01-03T19:47:57.607Z,8.37
2019-01-03T19:50:30.635Z,7.97
2019-01-03T19:53:03.503Z,8.40
2019-01-03T19:55:35.462Z,8.20
2019-01-03T19:58:07.360Z,8.43
2019-01-03T20:00:39.441Z,9.10
2019-01-03T20:03:11.662Z,8.07
2019-01-03T20:05:43.602Z,8.90
2019-01-03T20:08:15.468Z,9.73
2019-01-03T20:10:47.651Z,10.60
2019-01-03T20:13:19.636Z,7.87
2019-01-03T20:15:53.372Z,9.78
2019-01-03T20:18:25.519Z,9.33
2019-01-03T20:20:57.575Z,8.33
2019-01-03T20:23:29.692Z,9.63
2019-01-03T20:26:01.612Z,9.70
2019-01-03T20:28:33.551Z,8.40
2019-01-03T20:31:05.706Z,11.57
2019-01-03T20:33:38.282Z,7.67
2019-01-03T20:36:10.394Z,8.40
2019-01-03T20:38:43.375Z,10.53
2019-01-03T20:41:15.567Z,10.40
2019-01-03T20:43:49.661Z,10.20
2019-01-03T20:46:21.605Z,10.17
2019-01-03T20:48:53.729Z,9.67
2019-01-03T20:51:26.134Z,7.73
2019-01-03T20:53:58.259Z,9.93
2019-01-03T20:56:31.834Z,9.10
2019-01-03T20:59:03.800Z,9.73
2019-01-03T21:01:36.011Z,10.80
2019-01-03T21:04:08.910Z,10.10
2019-01-03T21:06:41.914Z,9.70
2019-01-03T21:09:14.437Z,8.30
2019-01-03T21:11:46.647Z,8.93
2019-01-03T21:14:18.837Z,8.50
2019-01-03T21:16:51.629Z,8.20
2019-01-03T21:19:23.603Z,9.20
2019-01-03T21:21:55.858Z,9.17
2019-01-03T21:24:27.694Z,9.70
2019-01-03T21:26:59.980Z,9.50
2019-01-03T21:29:31.738Z,8.60
2019-01-03T21:32:03.627Z,8.28
2019-01-03T21:34:35.865Z,8.10
2019-01-03T21:37:07.994Z,9.05
2019-01-03T21:39:40.075Z,9.20
2019-01-03T21:42:12.079Z,7.60
2019-01-03T21:44:44.073Z,8.50
2019-01-03T21:47:16.810Z,9.13
2019-01-03T21:49:48.893Z,8.67
2019-01-03T21:52:21.334Z,10.47
2019-01-03T21:54:55.167Z,8.43
2019-01-03T21:57:27.468Z,9.23
2019-01-03T21:59:59.344Z,8.37
2019-01-03T22:02:31.085Z,9.17
2019-01-03T22:05:03.348Z,10.10
2019-01-03T22:07:38.503Z,9.27
2019-01-03T22:10:12.013Z,9.40
2019-01-03T22:12:43.695Z,9.93
2019-01-03T22:15:16.579Z,10.50
2019-01-03T22:17:49.248Z,9.20
2019-01-03T22:20:20.985Z,10.30
2019-01-03T22:22:52.796Z,9.93
2019-01-03T22:25:24.782Z,10.53
2019-01-03T22:27:56.454Z,11.40
2019-01-03T22:30:28.563Z,11.63
2019-01-03T22:33:00.346Z,10.33
2019-01-03T22:35:32.424Z,11.60
2019-01-03T22:38:04.196Z,10.40
2019-01-03T22:40:36.204Z,10.75
2019-01-03T22:43:08.060Z,11.12
2019-01-03T22:45:42.690Z,9.10
2019-01-03T22:48:14.446Z,9.20
2019-01-03T22:50:46.209Z,9.33
2019-01-03T22:53:17.921Z,10.07
2019-01-03T22:55:50.892Z,9.50
2019-01-03T22:58:22.902Z,9.63
2019-01-03T23:00:58.691Z,9.88
2019-01-03T23:03:32.453Z,11.30
2019-01-03T23:06:04.420Z,10.07
2019-01-03T23:08:36.107Z,8.67
2019-01-03T23:11:08.030Z,8.00
2019-01-03T23:13:39.733Z,9.93
2019-01-03T23:16:12.096Z,8.77
2019-01-03T23:18:43.866Z,9.65
2019-01-03T23:21:15.591Z,10.40
2019-01-03T23:23:47.335Z,9.30
2019-01-03T23:26:19.260Z,9.63
2019-01-03T23:28:50.996Z,10.53
2019-01-03T23:31:22.756Z,9.80
2019-01-03T23:33:54.549Z,10.50
2019-01-03T23:36:26.250Z,11.17
2019-01-03T23:38:58.067Z,10.20
2019-01-03T23:41:30.119Z,10.17
2019-01-03T23:44:01.800Z,9.90
2019-01-03T23:46:33.475Z,11.22
2019-01-03T23:49:05.438Z,10.00
2019-01-03T23:51:37.230Z,11.40
2019-01-03T23:54:08.964Z,10.20
2019-01-03T23:56:43.764Z,9.85
2019-01-03T23:59:15.704Z,9.73
